x

Buoy E01 - Central Maine Shelf (44032) Wave Buoy

12:04am - Thu 21st Mar 2019 All times are EDT. -4 hours from GMT.

  • Sig Wave height 3.9ft
  • Peak Period 5s
  • Wind
    16mph, 18mph gusts
  • Sea Temp 37°f
  • Air Temp 39°f
  • Sea Pressure 1024.4mb
  • Buoy E01 - Central Maine Shelf
  • Buoy E01 - Central Maine Shelf

More Historic Weather Station data

Upgrade to MSW Pro to gain access to the past 30 days of data for over 8000 Wavebouys and Weather Stations around the globe.

Join

Comparision Forecast

View Surf forecast
   
Thu 03/21 12:04am 4ft 5s 16 18 mph 1024.4mb 37f 39f
Wed 03/20 11:04pm 4ft 5s 18 20 mph 1024.6mb 37f 39f
10:04pm 3.5ft 5s 18 20 mph 1024.6mb 37f 39f
9:04pm 3.5ft 4s 16 18 mph 1025.1mb 37f 39f
8:04pm 2.5ft 4s 16 18 mph 1025.5mb 37f 39f
7:04pm  -   -  16 18 mph 1025.6mb - 38f
6:04pm 2.5ft 4s 13 16 mph 1025.5mb 37f 38f
5:04pm 2.5ft 4s 16 18 mph 1025.6mb 37f 38f
4:04pm 2.5ft 4s 13 18 mph 1025.9mb 37f 38f
3:04pm 2.5ft 4s 16 18 mph 1026.3mb 37f 38f
2:04pm 2ft 3s 16 18 mph 1027mb 37f 37f
1:04pm  -   -  13 16 mph 1027.8mb - 36f
12:04pm 0.7ft  -  11 13 mph 1028.3mb 37f 36f
11:04am 0.3ft  -  11 11 mph 1028.9mb 37f 35f
10:04am 0.3ft  -  7 9 mph 1029.3mb 37f 34f
9:04am 0.7ft  -  7 7 mph 1029.2mb 37f 34f
8:04am 0.3ft  -  4 4 mph 1029.5mb 37f 33f
7:04am 0.7ft  -  2 2 mph 1029.1mb 37f 32f
6:04am 1ft 8s 2 4 mph 1028.8mb 37f 32f
5:04am 1ft 2s  -  mph - 36f -
4:04am 1ft 2s  -  mph - 37f -
2:04am 1ft 4s 7 9 mph 1028.7mb 37f 34f
1:04am 1ft 3s 7 9 mph 1028.3mb 37f 34f
12:04am 1.3ft 3s 7 9 mph 1028.3mb 37f 34f
Tue 03/19 11:04pm 1.3ft 4s 11 13 mph 1027.8mb 37f 35f
10:04pm 1.6ft 3s  -  mph - 37f -
9:04pm 1.6ft 3s  -  mph - 37f -
8:04pm 2ft 3s  -  mph - 37f -
6:04pm 2ft 3s 13 18 mph 1026mb 37f 35f
5:04pm 1ft 2s 13 16 mph 1025.8mb 37f 34f
4:04pm 1.3ft 11s 13 18 mph 1026mb 37f 34f
3:04pm 0.7ft  -  9 11 mph 1026mb 37f 33f
2:04pm 0.7ft  -  11 13 mph 1026.3mb 37f 32f
1:04pm 0.7ft  -  7 9 mph 1026.8mb 37f 33f
12:04pm 1.3ft 11s 9 11 mph 1027mb 37f 32f
11:04am  -   -  9 11 mph 1027.3mb - 30f
10:04am 1ft 2s 11 13 mph 1027.3mb 37f 29f
9:04am 1ft 2s 11 13 mph 1027.1mb 37f 29f
8:04am 1ft 3s 9 11 mph 1026.8mb 37f 30f
7:04am 1ft 3s 9 11 mph 1026.3mb 37f 29f
6:04am 1ft 3s 11 13 mph 1025.9mb 37f 29f
5:04am 0.7ft  -  11 13 mph 1025.6mb 37f 29f
4:04am 1ft 4s 9 11 mph 1025.4mb 37f 30f
3:04am 1ft 4s 9 11 mph 1025.4mb 37f 31f
2:04am 1ft 4s 4 7 mph 1025.2mb 37f 31f
1:04am 1.6ft 5s 7 9 mph 1025mb 37f 32f
12:04am 1.3ft 5s 9 13 mph 1024.8mb 37f 33f
Mon 03/18 11:04pm 1.6ft 5s 9 11 mph 1024.3mb 37f 34f
10:04pm 1.6ft 3s 9 13 mph 1024.1mb 37f 34f
9:04pm 1.6ft 3s 16 18 mph 1023.6mb 37f 35f
8:04pm  -   -  16 20 mph 1022.7mb - 36f
7:04pm 1.6ft 3s 11 13 mph 1021.9mb 37f 35f
6:04pm 2ft 3s 13 16 mph 1021.3mb 37f 35f
5:04pm 2.5ft 4s 16 18 mph 1020.8mb 37f 34f
4:04pm 2.5ft 4s 16 20 mph 1020.5mb 37f 33f
3:04pm 3ft 5s 18 20 mph 1020.8mb 37f 32f
1:04pm 2ft 5s 11 18 mph 1021.4mb 37f 30f
11:04am 2.5ft 5s 13 18 mph 1021.2mb 37f 29f
10:04am 2.5ft 4s 13 18 mph 1021.2mb 37f 28f
8:04am 2ft 4s 18 20 mph 1020.8mb 37f 29f
7:04am 1.6ft 3s 16 18 mph 1020.5mb 37f 29f
6:04am 1.3ft 4s 16 20 mph 1020.3mb 37f 29f
5:04am 1.6ft 4s 13 18 mph 1019.9mb 37f 30f
4:04am 1.6ft 3s 13 16 mph 1019.9mb 37f 29f
3:04am 1.6ft 3s 11 13 mph 1020mb 37f 29f
2:04am 2.5ft 3s 18 25 mph 1019.9mb 37f 29f
12:04am 3ft 3s 18 22 mph 1019.7mb 37f 30f
Sun 03/17 11:04pm 3ft 5s 16 20 mph 1019.3mb 37f 30f
10:04pm 3.5ft 5s 20 25 mph 1018.9mb 37f 31f
9:04pm 3ft 5s 18 20 mph 1018.2mb 37f 33f
8:04pm 3ft 5s 18 20 mph 1017.4mb 37f 33f
6:04pm 3ft 5s 13 20 mph 1016.2mb 37f 34f
5:04pm 3.5ft 5s 16 20 mph 1015.9mb 37f 34f
3:04pm 3ft 5s 16 25 mph 1016mb 37f 32f
2:04pm 3ft 5s 16 22 mph 1016.2mb 37f 32f
12:04pm 4ft 5s 25 36 mph 1016.2mb 38f 31f
11:04am 3.5ft 5s 16 27 mph 1016.5mb 38f 31f
10:04am 4.5ft 5s 25 34 mph 1016.3mb 38f 31f
9:04am 5ft 4s 29 40 mph 1015.8mb 38f 31f
8:04am 3.5ft 5s 25 31 mph 1015.4mb 38f 31f
7:04am 3ft 5s 18 25 mph 1014.5mb 38f 32f
6:04am 4ft 5s 18 22 mph 1013.7mb 38f 33f